Time;durP1;ratioP1;P1;durP2;ratioP2;P2;SDS_P1;SDS_P2;PMS_P1;PMS_P2;Temp;Humidity;BMP_temperature;BMP_pressure;BME280_temperature;BME280_humidity;BME280_pressure;Samples;Min_cycle;Max_cycle;Signal;HPM_P1;HPM_P2
2022/03/15 00:00:09;;;;;;;8.20;4.88;;;10.10;99.90;;;;;;4144081;28;20038;-68
2022/03/15 00:02:09;;;;;;;7.10;4.43;;;10.10;99.90;;;;;;4142219;28;20076;-66
2022/03/15 00:04:10;;;;;;;8.15;4.93;;;10.10;99.90;;;;;;4144004;28;20077;-67
2022/03/15 00:06:11;;;;;;;7.65;4.20;;;10.00;99.90;;;;;;4144408;28;20362;-67
2022/03/15 00:08:12;;;;;;;8.27;4.32;;;9.90;99.90;;;;;;4143690;28;20042;-67
2022/03/15 00:10:15;;;;;;;7.93;4.75;;;9.90;99.90;;;;;;4143706;28;20129;-67
2022/03/15 00:12:15;;;;;;;6.93;4.63;;;9.90;99.90;;;;;;4142364;28;20037;-67
2022/03/15 00:14:17;;;;;;;7.63;5.03;;;9.80;99.90;;;;;;4144554;28;20034;-66
2022/03/15 00:16:18;;;;;;;7.22;4.47;;;9.80;99.90;;;;;;4143161;28;20073;-67
2022/03/15 00:18:20;;;;;;;8.70;4.40;;;9.80;99.90;;;;;;4139391;28;20893;-67
2022/03/15 00:20:23;;;;;;;8.27;5.10;;;9.80;99.90;;;;;;4125027;28;20038;-67
2022/03/15 00:22:24;;;;;;;7.35;4.35;;;9.80;99.90;;;;;;4142574;28;20433;-67
2022/03/15 00:24:25;;;;;;;9.00;5.07;;;9.80;99.90;;;;;;4142257;28;20092;-67
2022/03/15 00:26:28;;;;;;;9.05;4.75;;;9.70;99.90;;;;;;4142963;28;20034;-67
2022/03/15 00:28:29;;;;;;;7.10;3.95;;;9.70;99.90;;;;;;4142957;28;20043;-66
2022/03/15 00:30:30;;;;;;;7.60;4.90;;;9.70;99.90;;;;;;4141576;28;20073;-66
2022/03/15 00:32:32;;;;;;;8.27;4.80;;;9.70;99.90;;;;;;4142629;28;20489;-66
2022/03/15 00:34:33;;;;;;;8.93;4.93;;;9.70;99.90;;;;;;4144080;28;20045;-66
2022/03/15 00:36:35;;;;;;;6.50;4.68;;;9.70;99.90;;;;;;4143836;28;20030;-67
2022/03/15 00:38:36;;;;;;;8.90;4.90;;;9.80;99.90;;;;;;4141899;28;20482;-67
2022/03/15 00:40:36;;;;;;;10.68;4.65;;;9.70;99.90;;;;;;4143567;28;20041;-66
2022/03/15 00:42:37;;;;;;;8.98;4.68;;;9.80;99.90;;;;;;4143253;28;20038;-67
2022/03/15 00:44:38;;;;;;;8.75;5.05;;;9.70;99.90;;;;;;4141456;28;20037;-67
2022/03/15 00:46:39;;;;;;;10.13;5.45;;;9.80;99.90;;;;;;4140875;28;20057;-67
2022/03/15 00:48:39;;;;;;;7.07;4.93;;;9.70;99.90;;;;;;4142355;28;20489;-66
2022/03/15 00:50:41;;;;;;;5.63;4.43;;;9.80;99.90;;;;;;4143442;28;20052;-66
2022/03/15 00:52:42;;;;;;;10.13;5.60;;;9.80;99.90;;;;;;4141779;28;20512;-67
2022/03/15 00:54:42;;;;;;;10.05;5.10;;;9.80;99.90;;;;;;4142711;28;20276;-67
2022/03/15 00:56:44;;;;;;;7.65;4.50;;;9.80;99.90;;;;;;4142267;28;20052;-67
2022/03/15 00:58:44;;;;;;;6.35;4.55;;;9.80;99.90;;;;;;4144455;28;20054;-67
2022/03/15 01:00:48;;;;;;;7.35;4.40;;;9.80;99.90;;;;;;4142819;28;20042;-67
2022/03/15 01:02:49;;;;;;;8.85;5.10;;;9.80;99.90;;;;;;4142978;28;20476;-67
2022/03/15 01:04:50;;;;;;;10.50;5.30;;;9.80;99.90;;;;;;4142322;28;20398;-66
2022/03/15 01:06:50;;;;;;;7.68;4.57;;;9.80;99.90;;;;;;4142825;28;20040;-66
2022/03/15 01:08:51;;;;;;;11.48;4.65;;;9.80;99.90;;;;;;4139464;28;20038;-67
2022/03/15 01:10:51;;;;;;;9.23;4.28;;;9.80;99.90;;;;;;4142466;28;20042;-67
2022/03/15 01:12:52;;;;;;;9.00;4.90;;;9.70;99.90;;;;;;4142695;28;20484;-67
2022/03/15 01:14:53;;;;;;;10.52;4.85;;;9.70;99.90;;;;;;4143148;28;20111;-67
2022/03/15 01:16:55;;;;;;;9.38;4.72;;;9.80;99.90;;;;;;4141717;28;20041;-66
2022/03/15 01:18:56;;;;;;;10.00;5.07;;;9.70;99.90;;;;;;4143671;28;20041;-67
2022/03/15 01:20:57;;;;;;;9.07;4.80;;;9.80;99.90;;;;;;4142962;28;20052;-67
2022/03/15 01:22:57;;;;;;;9.50;5.05;;;9.70;99.90;;;;;;4142743;28;20128;-67
2022/03/15 01:24:58;;;;;;;8.70;4.57;;;9.80;99.90;;;;;;4144283;28;20037;-66
2022/03/15 01:26:59;;;;;;;7.05;4.15;;;9.80;99.90;;;;;;4142775;28;20474;-67
2022/03/15 01:29:02;;;;;;;12.80;5.40;;;9.80;99.90;;;;;;4142418;28;20065;-66
2022/03/15 01:31:02;;;;;;;9.23;4.78;;;9.80;99.90;;;;;;4143372;28;20078;-67
2022/03/15 01:33:03;;;;;;;8.85;4.53;;;9.70;99.90;;;;;;4141021;28;20393;-67
2022/03/15 01:35:04;;;;;;;9.98;4.88;;;9.80;99.90;;;;;;4143514;28;20037;-67
2022/03/15 01:37:05;;;;;;;10.00;4.53;;;9.70;99.90;;;;;;4138725;28;20559;-67
2022/03/15 01:39:06;;;;;;;7.35;4.53;;;9.70;99.90;;;;;;4140263;28;20035;-66
2022/03/15 01:41:07;;;;;;;9.40;4.60;;;9.70;99.90;;;;;;4143541;28;20440;-66
2022/03/15 01:43:08;;;;;;;8.65;4.70;;;9.70;99.90;;;;;;4140611;28;20034;-66
2022/03/15 01:45:10;;;;;;;8.15;4.57;;;9.70;99.90;;;;;;4140273;28;20034;-69
2022/03/15 01:47:11;;;;;;;10.05;4.80;;;9.80;99.90;;;;;;4141312;28;20095;-66
2022/03/15 01:49:11;;;;;;;9.13;5.00;;;9.70;99.90;;;;;;4142736;28;20073;-66
2022/03/15 01:51:15;;;;;;;6.63;4.25;;;9.70;99.90;;;;;;4142777;28;20046;-66
2022/03/15 01:53:16;;;;;;;8.52;4.18;;;9.80;99.90;;;;;;4140760;28;20437;-66
2022/03/15 01:55:16;;;;;;;7.40;4.38;;;9.80;99.90;;;;;;4136539;28;20420;-66
2022/03/15 01:57:17;;;;;;;9.75;5.18;;;9.80;99.90;;;;;;4142919;28;20056;-66
2022/03/15 01:59:17;;;;;;;10.02;5.05;;;9.80;99.90;;;;;;4141930;28;20045;-67
2022/03/15 02:01:18;;;;;;;7.40;4.65;;;9.80;99.90;;;;;;4142101;28;20045;-66
2022/03/15 02:03:19;;;;;;;7.07;4.43;;;9.80;99.90;;;;;;4143018;28;20068;-67
2022/03/15 02:05:19;;;;;;;9.30;4.60;;;9.80;99.90;;;;;;4145804;28;20418;-67
2022/03/15 02:07:20;;;;;;;11.27;5.32;;;9.80;99.90;;;;;;4145710;28;20029;-67
2022/03/15 02:09:20;;;;;;;11.55;5.38;;;9.80;99.90;;;;;;4146075;28;20535;-66
2022/03/15 02:11:21;;;;;;;8.75;4.63;;;9.70;99.90;;;;;;4144730;28;20041;-66
2022/03/15 02:13:22;;;;;;;10.18;5.25;;;9.80;99.90;;;;;;4146774;28;20428;-67
2022/03/15 02:15:22;;;;;;;11.77;5.63;;;9.80;99.90;;;;;;4145715;28;20037;-67
2022/03/15 02:17:23;;;;;;;9.75;5.30;;;9.70;99.90;;;;;;4145127;28;20042;-67
2022/03/15 02:19:24;;;;;;;13.25;5.68;;;9.70;99.90;;;;;;4145770;28;20046;-66
2022/03/15 02:21:29;;;;;;;12.02;5.80;;;9.70;99.90;;;;;;4145249;28;20065;-66
2022/03/15 02:23:29;;;;;;;8.80;4.78;;;9.70;99.90;;;;;;4145928;28;20484;-67
2022/03/15 02:25:30;;;;;;;7.75;4.85;;;9.70;99.90;;;;;;4145634;28;20042;-67
2022/03/15 02:27:30;;;;;;;11.27;5.10;;;9.70;99.90;;;;;;4146103;28;20459;-66
2022/03/15 02:29:33;;;;;;;11.32;5.38;;;9.70;99.90;;;;;;4145101;28;20385;-66
2022/03/15 02:31:34;;;;;;;11.45;5.13;;;9.70;99.90;;;;;;4144697;28;20041;-68
2022/03/15 02:33:34;;;;;;;8.75;5.30;;;9.60;99.90;;;;;;4144758;28;20038;-67
2022/03/15 02:35:35;;;;;;;8.90;5.03;;;9.70;99.90;;;;;;4145694;28;20036;-67
2022/03/15 02:37:35;;;;;;;13.38;5.97;;;9.60;99.90;;;;;;4145291;28;20358;-66
2022/03/15 02:39:36;;;;;;;12.32;5.82;;;9.60;99.90;;;;;;4145580;28;20037;-66
2022/03/15 02:41:37;;;;;;;8.90;5.30;;;9.60;99.90;;;;;;4145414;28;20068;-67
2022/03/15 02:43:38;;;;;;;8.13;4.20;;;9.60;99.90;;;;;;4144486;28;20393;-67
2022/03/15 02:45:39;;;;;;;11.13;5.30;;;9.70;99.90;;;;;;4145339;28;20422;-67
2022/03/15 02:47:43;;;;;;;11.23;5.43;;;9.60;99.90;;;;;;4144432;28;20045;-66
2022/03/15 02:49:44;;;;;;;11.13;5.40;;;9.60;99.90;;;;;;4144566;28;20057;-66
2022/03/15 02:51:45;;;;;;;13.43;5.53;;;9.70;99.90;;;;;;4143787;28;20065;-67
2022/03/15 02:53:47;;;;;;;8.25;4.95;;;9.60;99.90;;;;;;4144341;28;20065;-66
2022/03/15 02:55:47;;;;;;;7.67;4.70;;;9.60;99.90;;;;;;4143757;28;20520;-66
2022/03/15 02:57:49;;;;;;;13.13;5.97;;;9.60;99.90;;;;;;4145895;28;20080;-67
2022/03/15 02:59:49;;;;;;;11.15;4.90;;;9.60;99.90;;;;;;4145335;28;20037;-66
2022/03/15 03:01:50;;;;;;;9.90;5.47;;;9.60;99.90;;;;;;4144487;28;20060;-66
2022/03/15 03:03:53;;;;;;;8.07;4.97;;;9.50;99.90;;;;;;4144780;28;20091;-66
2022/03/15 03:05:53;;;;;;;9.18;4.85;;;9.50;99.90;;;;;;4145333;28;20030;-66
2022/03/15 03:07:54;;;;;;;8.77;5.07;;;9.60;99.90;;;;;;4145519;28;20052;-67
2022/03/15 03:09:55;;;;;;;12.70;5.30;;;9.60;99.90;;;;;;4145639;28;20050;-67
2022/03/15 03:11:57;;;;;;;11.15;4.72;;;9.50;99.90;;;;;;4142852;28;20077;-68
2022/03/15 03:13:58;;;;;;;9.48;5.30;;;9.50;99.90;;;;;;4144217;28;20121;-66
2022/03/15 03:16:00;;;;;;;12.82;6.50;;;9.50;99.90;;;;;;4143183;28;20034;-66
2022/03/15 03:18:00;;;;;;;10.75;5.90;;;9.40;99.90;;;;;;4144863;28;20117;-66
2022/03/15 03:20:01;;;;;;;9.00;5.30;;;9.40;99.90;;;;;;4144491;28;20370;-66
2022/03/15 03:22:02;;;;;;;9.05;5.40;;;9.40;99.90;;;;;;4143207;28;20042;-66
2022/03/15 03:24:06;;;;;;;9.82;5.28;;;9.40;99.90;;;;;;4144142;28;20033;-66
2022/03/15 03:26:08;;;;;;;9.25;5.15;;;9.40;99.90;;;;;;4126296;28;20058;-67
2022/03/15 03:28:09;;;;;;;15.07;5.72;;;9.40;99.90;;;;;;4142386;28;20045;-67
2022/03/15 03:30:10;;;;;;;9.38;5.43;;;9.30;99.90;;;;;;4158261;28;20501;-67
2022/03/15 03:32:12;;;;;;;10.48;5.07;;;9.40;99.90;;;;;;4143558;28;20061;-67
2022/03/15 03:34:13;;;;;;;9.25;5.22;;;9.40;99.90;;;;;;4143054;28;20038;-66
2022/03/15 03:36:13;;;;;;;12.27;6.00;;;9.40;99.90;;;;;;4142812;28;20096;-66
2022/03/15 03:38:14;;;;;;;10.60;4.80;;;9.40;99.90;;;;;;4145418;28;20068;-66
2022/03/15 03:40:14;;;;;;;10.55;5.70;;;9.40;99.90;;;;;;4143661;28;20069;-67
2022/03/15 03:42:15;;;;;;;7.68;5.00;;;9.40;99.90;;;;;;4143750;28;20041;-66
2022/03/15 03:44:16;;;;;;;9.25;5.10;;;9.40;99.90;;;;;;4144978;28;20088;-66
2022/03/15 03:46:17;;;;;;;10.68;5.05;;;9.40;99.90;;;;;;4142440;28;20045;-66
2022/03/15 03:48:19;;;;;;;11.45;5.60;;;9.40;99.90;;;;;;4142922;28;20041;-66
2022/03/15 03:50:19;;;;;;;10.25;5.70;;;9.40;99.90;;;;;;4142847;28;20111;-66
2022/03/15 03:52:20;;;;;;;7.43;5.00;;;9.40;99.90;;;;;;4144440;28;20042;-66
2022/03/15 03:54:21;;;;;;;10.52;5.70;;;9.40;99.90;;;;;;4143254;28;20034;-66
2022/03/15 03:56:21;;;;;;;10.27;5.80;;;9.40;99.90;;;;;;4143002;28;20084;-66
2022/03/15 03:58:22;;;;;;;10.75;5.20;;;9.40;99.90;;;;;;4145380;28;20172;-66
2022/03/15 04:00:23;;;;;;;10.45;5.80;;;9.30;99.90;;;;;;4143341;28;20113;-66
2022/03/15 04:02:26;;;;;;;10.52;6.20;;;9.30;99.90;;;;;;4143224;28;20487;-66
2022/03/15 04:04:28;;;;;;;12.48;5.97;;;9.30;99.90;;;;;;4142091;28;20053;-67
2022/03/15 04:06:28;;;;;;;9.48;5.85;;;9.20;99.90;;;;;;4142319;28;20121;-66
2022/03/15 04:08:31;;;;;;;15.45;6.22;;;9.20;99.90;;;;;;4141815;28;20625;-67
2022/03/15 04:10:32;;;;;;;7.72;5.05;;;9.20;99.90;;;;;;4140986;28;20049;-66
2022/03/15 04:12:34;;;;;;;8.85;5.20;;;9.20;99.90;;;;;;4145283;28;20121;-66
2022/03/15 04:14:34;;;;;;;10.73;5.45;;;9.20;99.90;;;;;;4143197;28;20125;-66
2022/03/15 04:16:35;;;;;;;10.68;5.53;;;9.20;99.90;;;;;;4142743;28;20065;-67
2022/03/15 04:18:35;;;;;;;13.13;5.43;;;9.20;99.90;;;;;;4143390;28;20171;-67
2022/03/15 04:20:36;;;;;;;12.20;6.10;;;9.20;99.90;;;;;;4143474;28;20056;-66
2022/03/15 04:22:37;;;;;;;10.95;5.70;;;9.20;99.90;;;;;;4142098;28;20049;-66
2022/03/15 04:24:37;;;;;;;11.10;5.72;;;9.20;99.90;;;;;;4142595;28;20482;-67
2022/03/15 04:26:38;;;;;;;10.13;5.70;;;9.20;99.90;;;;;;4143598;28;20476;-66
2022/03/15 04:28:38;;;;;;;9.23;5.30;;;9.10;99.90;;;;;;4143794;28;20029;-66
2022/03/15 04:30:39;;;;;;;13.73;5.88;;;9.10;99.90;;;;;;4142362;28;20042;-66
2022/03/15 04:32:40;;;;;;;11.55;5.72;;;9.10;99.90;;;;;;4144351;28;20048;-66
2022/03/15 04:34:40;;;;;;;11.63;5.72;;;9.10;99.90;;;;;;4145003;28;20107;-66
2022/03/15 04:36:42;;;;;;;13.27;6.45;;;9.10;99.90;;;;;;4141256;28;20037;-66
2022/03/15 04:38:42;;;;;;;13.90;5.68;;;9.00;99.90;;;;;;4141649;28;20033;-67
2022/03/15 04:40:43;;;;;;;10.52;5.63;;;9.00;99.90;;;;;;4144093;28;20121;-66
2022/03/15 04:42:45;;;;;;;10.20;5.53;;;8.90;99.90;;;;;;4143751;28;20042;-67
2022/03/15 04:44:46;;;;;;;13.27;6.28;;;9.00;99.90;;;;;;4142450;28;20164;-66
2022/03/15 04:46:46;;;;;;;9.75;5.45;;;8.90;99.90;;;;;;4140447;28;20553;-66
2022/03/15 04:48:47;;;;;;;9.68;5.85;;;9.00;99.90;;;;;;4142006;28;20034;-66
2022/03/15 04:50:47;;;;;;;11.15;5.60;;;9.00;99.90;;;;;;4144077;28;20058;-66
2022/03/15 04:52:48;;;;;;;13.73;5.72;;;9.00;99.90;;;;;;4143061;28;20030;-66
2022/03/15 04:54:49;;;;;;;13.75;5.88;;;8.90;99.90;;;;;;4142821;28;20064;-66
2022/03/15 04:56:50;;;;;;;9.63;6.07;;;9.00;99.90;;;;;;4141224;28;20034;-66
2022/03/15 04:58:51;;;;;;;10.98;5.00;;;9.00;99.90;;;;;;4142549;28;20389;-66
2022/03/15 05:00:51;;;;;;;9.07;5.20;;;9.00;99.90;;;;;;4143548;28;20449;-66
2022/03/15 05:02:52;;;;;;;9.43;5.22;;;9.00;99.90;;;;;;4142655;28;20038;-66
2022/03/15 05:04:52;;;;;;;9.23;5.10;;;9.00;99.90;;;;;;4144027;28;20101;-66
2022/03/15 05:06:53;;;;;;;9.68;5.05;;;9.00;99.90;;;;;;4147432;28;20038;-66
2022/03/15 05:08:54;;;;;;;8.93;5.60;;;9.10;99.90;;;;;;4132271;28;20561;-66
2022/03/15 05:11:06;;;;;;;11.10;5.00;;;9.00;99.90;;;;;;4144201;28;20050;-66
2022/03/15 05:13:07;;;;;;;8.95;5.18;;;9.10;99.90;;;;;;4141899;28;20042;-67
2022/03/15 05:15:08;;;;;;;8.70;5.20;;;9.00;99.90;;;;;;4142673;28;20034;-68
2022/03/15 05:17:08;;;;;;;10.25;5.07;;;9.00;99.90;;;;;;4140543;28;20050;-66
2022/03/15 05:19:09;;;;;;;9.80;4.88;;;9.00;99.90;;;;;;4143898;28;20454;-66
2022/03/15 05:21:14;;;;;;;8.02;4.78;;;9.00;99.90;;;;;;4143404;28;20374;-66
2022/03/15 05:23:15;;;;;;;8.02;4.93;;;9.00;99.90;;;;;;4142784;28;20077;-66
2022/03/15 05:25:16;;;;;;;8.20;4.93;;;9.00;99.90;;;;;;4141184;28;20092;-66
2022/03/15 05:27:16;;;;;;;8.93;5.03;;;9.00;99.90;;;;;;4138890;28;20042;-66
2022/03/15 05:29:17;;;;;;;9.55;4.88;;;9.10;99.90;;;;;;4144741;28;20496;-66
2022/03/15 05:31:21;;;;;;;11.52;5.18;;;9.00;99.90;;;;;;4138498;28;20046;-66
2022/03/15 05:33:22;;;;;;;10.13;4.70;;;9.00;99.90;;;;;;4142994;28;20568;-66
2022/03/15 05:35:23;;;;;;;8.40;4.63;;;9.00;99.90;;;;;;4141360;28;20033;-66
2022/03/15 05:37:23;;;;;;;11.90;5.30;;;9.10;99.90;;;;;;4140411;28;20038;-66
2022/03/15 05:39:24;;;;;;;9.55;4.47;;;9.10;99.90;;;;;;4145514;28;20034;-66
2022/03/15 05:41:25;;;;;;;10.38;5.20;;;9.00;99.90;;;;;;4143656;28;20034;-66
2022/03/15 05:43:25;;;;;;;9.63;5.05;;;9.00;99.90;;;;;;4144882;28;20524;-67
2022/03/15 05:45:26;;;;;;;11.68;5.13;;;9.00;99.90;;;;;;4145142;28;20041;-66
2022/03/15 05:47:27;;;;;;;7.85;4.38;;;9.00;99.90;;;;;;4144945;28;20506;-67
2022/03/15 05:49:28;;;;;;;8.65;4.90;;;9.10;99.90;;;;;;4145292;28;20189;-66
2022/03/15 05:51:28;;;;;;;7.40;4.65;;;9.10;99.90;;;;;;4145137;28;20046;-66
2022/03/15 05:53:29;;;;;;;8.70;5.00;;;9.10;99.90;;;;;;4146292;28;20046;-66
2022/03/15 05:55:33;;;;;;;9.50;4.68;;;9.10;99.90;;;;;;4144876;28;20044;-66
2022/03/15 05:57:34;;;;;;;9.43;4.57;;;9.10;99.90;;;;;;4145366;28;20107;-66
2022/03/15 05:59:34;;;;;;;9.38;5.22;;;9.10;99.90;;;;;;4146914;28;20034;-66
2022/03/15 06:01:35;;;;;;;10.43;4.95;;;9.00;99.90;;;;;;4145412;28;20485;-66
2022/03/15 06:03:36;;;;;;;7.82;4.50;;;9.00;99.90;;;;;;4144698;28;20034;-66
2022/03/15 06:05:37;;;;;;;11.40;4.50;;;9.00;99.90;;;;;;4145784;28;20585;-66
2022/03/15 06:07:45;;;;;;;10.88;4.07;;;9.00;99.90;;;;;;4144659;28;20465;-66
2022/03/15 06:09:46;;;;;;;7.70;4.45;;;9.10;99.90;;;;;;4146812;28;20058;-66
2022/03/15 06:11:47;;;;;;;8.60;4.57;;;9.10;99.90;;;;;;4144712;28;20145;-66
2022/03/15 06:13:48;;;;;;;9.27;4.53;;;9.10;99.90;;;;;;4145187;28;20049;-66
2022/03/15 06:15:49;;;;;;;8.75;4.85;;;9.00;99.90;;;;;;4144187;28;20038;-66
2022/03/15 06:17:56;;;;;;;7.20;4.22;;;9.10;99.90;;;;;;4145114;28;20034;-66
2022/03/15 06:19:56;;;;;;;10.30;4.80;;;9.10;99.90;;;;;;4149559;28;20077;-67
2022/03/15 06:21:57;;;;;;;11.10;4.57;;;9.10;99.90;;;;;;4149746;28;20049;-67
2022/03/15 06:23:58;;;;;;;11.48;4.88;;;9.00;99.90;;;;;;4142857;28;20038;-67
2022/03/15 06:25:59;;;;;;;11.45;4.55;;;9.00;99.90;;;;;;4144538;28;20041;-66
2022/03/15 06:27:59;;;;;;;8.60;4.28;;;9.10;99.90;;;;;;4147445;28;20474;-66
2022/03/15 06:30:00;;;;;;;6.30;3.72;;;9.10;99.90;;;;;;4146628;28;20054;-67
2022/03/15 06:32:01;;;;;;;9.05;3.85;;;9.10;99.90;;;;;;4143985;28;20557;-67
2022/03/15 06:34:04;;;;;;;5.70;4.03;;;9.10;99.90;;;;;;4145533;28;20408;-67
2022/03/15 06:36:11;;;;;;;8.75;4.40;;;9.10;99.90;;;;;;4144839;28;20109;-66
2022/03/15 06:38:12;;;;;;;7.47;3.92;;;9.10;99.90;;;;;;4144237;28;20036;-66
2022/03/15 06:40:22;;;;;;;8.32;4.03;;;9.20;99.90;;;;;;4142397;28;20165;-67
2022/03/15 06:42:22;;;;;;;8.82;4.18;;;9.10;99.90;;;;;;4144574;28;20037;-67
2022/03/15 06:44:23;;;;;;;6.38;3.63;;;9.10;99.90;;;;;;4143540;28;20038;-67
2022/03/15 06:46:23;;;;;;;7.88;3.72;;;9.10;99.90;;;;;;4143335;28;20045;-67
2022/03/15 06:48:24;;;;;;;10.52;3.70;;;9.10;99.90;;;;;;4143626;28;20070;-67
2022/03/15 06:50:24;;;;;;;6.63;3.70;;;9.10;99.90;;;;;;4142957;28;20053;-67
2022/03/15 06:52:25;;;;;;;8.63;3.80;;;9.10;99.90;;;;;;4145850;28;20034;-67
2022/03/15 06:54:26;;;;;;;7.00;3.90;;;9.20;99.90;;;;;;4143343;28;20516;-67
2022/03/15 06:56:27;;;;;;;5.78;3.50;;;9.20;99.90;;;;;;4143369;28;20038;-66
2022/03/15 06:58:28;;;;;;;7.30;3.40;;;9.20;99.90;;;;;;4144531;28;20050;-66
2022/03/15 07:00:29;;;;;;;7.07;4.10;;;9.20;99.90;;;;;;4143376;28;20041;-66
2022/03/15 07:02:30;;;;;;;5.35;3.38;;;9.30;99.90;;;;;;4144893;28;20188;-66
2022/03/15 07:04:30;;;;;;;8.38;4.13;;;9.30;99.90;;;;;;4143589;28;20050;-67
2022/03/15 07:06:31;;;;;;;6.65;3.63;;;9.30;99.90;;;;;;4143462;28;20034;-67
2022/03/15 07:08:32;;;;;;;8.82;4.10;;;9.40;99.90;;;;;;4144447;28;20046;-66
2022/03/15 07:10:33;;;;;;;7.35;3.67;;;9.40;99.90;;;;;;4144262;28;20048;-66
2022/03/15 07:12:34;;;;;;;8.02;4.07;;;9.40;99.90;;;;;;4144269;28;20048;-67
2022/03/15 07:14:35;;;;;;;9.60;4.35;;;9.40;99.90;;;;;;4144255;28;20445;-67
2022/03/15 07:16:35;;;;;;;7.60;3.60;;;9.40;99.90;;;;;;4144690;28;20034;-67
2022/03/15 07:18:36;;;;;;;9.20;4.18;;;9.50;99.90;;;;;;4143062;28;20485;-67
2022/03/15 07:20:37;;;;;;;7.57;3.90;;;9.50;99.90;;;;;;4144155;28;20121;-66
2022/03/15 07:22:38;;;;;;;10.73;4.40;;;9.50;99.90;;;;;;4144574;28;20515;-66
2022/03/15 07:24:38;;;;;;;7.13;3.53;;;9.50;99.90;;;;;;4143912;28;20061;-67
2022/03/15 07:26:39;;;;;;;6.72;3.97;;;9.60;99.90;;;;;;4142919;28;20042;-66
2022/03/15 07:28:39;;;;;;;6.85;3.75;;;9.50;99.90;;;;;;4144568;28;20072;-66
2022/03/15 07:30:40;;;;;;;8.18;3.95;;;9.50;99.90;;;;;;4141874;28;20085;-66
2022/03/15 07:32:41;;;;;;;5.90;3.28;;;9.50;99.90;;;;;;4143579;28;20033;-66
2022/03/15 07:34:41;;;;;;;7.53;3.95;;;9.60;99.90;;;;;;4142803;28;20381;-67
2022/03/15 07:36:42;;;;;;;7.15;3.60;;;9.60;99.90;;;;;;4140204;28;20125;-66
2022/03/15 07:38:43;;;;;;;8.27;4.10;;;9.60;99.90;;;;;;4143686;28;20037;-67
2022/03/15 07:40:44;;;;;;;7.03;3.92;;;9.60;99.90;;;;;;4137471;28;20045;-67
2022/03/15 07:42:46;;;;;;;9.30;3.45;;;9.70;99.90;;;;;;4144123;28;20038;-67
2022/03/15 07:44:46;;;;;;;7.35;3.30;;;9.70;99.90;;;;;;4141564;28;20500;-67
2022/03/15 07:46:50;;;;;;;7.22;3.47;;;9.70;99.90;;;;;;4142504;28;20096;-66
2022/03/15 07:48:50;;;;;;;7.82;2.75;;;9.70;99.90;;;;;;4139927;28;20046;-67
2022/03/15 07:50:52;;;;;;;11.07;3.55;;;9.80;99.90;;;;;;4142564;28;20088;-67
2022/03/15 07:52:53;;;;;;;8.95;3.47;;;9.70;99.90;;;;;;4143350;28;20038;-67
2022/03/15 07:54:54;;;;;;;5.13;3.00;;;9.80;99.90;;;;;;4143962;28;20387;-67
2022/03/15 07:56:54;;;;;;;7.78;3.70;;;9.80;99.90;;;;;;4143421;28;20121;-67
2022/03/15 07:58:55;;;;;;;7.40;2.95;;;9.80;99.90;;;;;;4144669;28;20041;-67
2022/03/15 08:00:57;;;;;;;6.80;3.30;;;9.80;99.90;;;;;;4142625;28;20069;-67
2022/03/15 08:02:57;;;;;;;5.88;3.30;;;9.80;99.90;;;;;;4143490;28;20056;-67
2022/03/15 08:04:58;;;;;;;6.88;2.92;;;9.90;99.90;;;;;;4141833;28;20148;-68
2022/03/15 08:06:59;;;;;;;6.35;3.00;;;9.90;99.90;;;;;;4142200;28;20037;-67
2022/03/15 08:08:59;;;;;;;7.65;3.15;;;9.90;99.90;;;;;;4143595;28;20041;-66
2022/03/15 08:11:06;;;;;;;12.93;3.53;;;9.90;99.90;;;;;;4142725;28;20122;-67
2022/03/15 08:13:06;;;;;;;9.68;3.13;;;10.00;99.90;;;;;;4140304;28;20041;-66
2022/03/15 08:15:09;;;;;;;6.43;3.00;;;10.00;99.90;;;;;;4143437;28;20792;-68
2022/03/15 08:17:10;;;;;;;6.57;2.95;;;10.00;99.90;;;;;;4144052;28;20386;-67
2022/03/15 08:19:12;;;;;;;12.48;3.63;;;10.00;99.90;;;;;;4142677;28;20057;-66
2022/03/15 08:21:13;;;;;;;9.57;3.50;;;10.00;99.90;;;;;;4142262;28;20099;-67
2022/03/15 08:23:13;;;;;;;8.20;3.35;;;10.00;99.90;;;;;;4143054;28;20527;-67
2022/03/15 08:25:14;;;;;;;11.07;3.72;;;10.00;99.90;;;;;;4143195;28;21010;-67
2022/03/15 08:27:15;;;;;;;11.50;3.28;;;10.00;99.90;;;;;;4143755;28;20042;-66
2022/03/15 08:29:16;;;;;;;8.48;3.53;;;10.00;99.90;;;;;;4143176;28;20466;-67
2022/03/15 08:31:17;;;;;;;12.45;4.00;;;10.00;99.90;;;;;;4141542;28;20040;-66
2022/03/15 08:33:18;;;;;;;9.63;3.95;;;10.00;99.90;;;;;;4143245;28;20137;-67
2022/03/15 08:35:19;;;;;;;5.53;3.63;;;10.00;99.90;;;;;;4141209;28;20410;-67
2022/03/15 08:37:20;;;;;;;9.73;3.70;;;10.00;99.90;;;;;;4142848;28;20037;-66
2022/03/15 08:39:22;;;;;;;8.75;3.45;;;10.00;99.90;;;;;;4143016;28;20042;-66
2022/03/15 08:41:23;;;;;;;7.70;3.88;;;9.90;99.90;;;;;;4142469;28;20414;-67
2022/03/15 08:43:24;;;;;;;7.30;3.22;;;10.00;99.90;;;;;;4142627;28;20085;-66
2022/03/15 08:45:25;;;;;;;8.35;3.33;;;10.00;99.90;;;;;;4141879;28;20046;-67
2022/03/15 08:47:25;;;;;;;8.48;3.22;;;10.00;99.90;;;;;;4125682;28;20034;-66
2022/03/15 08:49:26;;;;;;;8.02;3.17;;;10.00;99.90;;;;;;4143457;28;20469;-67
2022/03/15 08:51:27;;;;;;;7.55;3.20;;;10.00;99.90;;;;;;4143800;28;20038;-67
2022/03/15 08:53:32;;;;;;;10.57;3.40;;;10.10;99.90;;;;;;4141710;28;20505;-67
2022/03/15 08:55:33;;;;;;;7.70;3.20;;;10.10;99.90;;;;;;4157923;28;20041;-67
2022/03/15 08:57:34;;;;;;;8.95;3.78;;;10.10;99.90;;;;;;4147591;28;20469;-66
2022/03/15 08:59:34;;;;;;;8.68;3.35;;;10.10;99.90;;;;;;4141349;28;20052;-66
2022/03/15 09:01:35;;;;;;;6.05;3.45;;;10.20;99.90;;;;;;4143793;28;20092;-67
2022/03/15 09:03:36;;;;;;;7.10;3.28;;;10.20;99.90;;;;;;4141352;28;20041;-66
2022/03/15 09:05:36;;;;;;;9.60;3.38;;;10.20;99.90;;;;;;4141642;28;20037;-66
2022/03/15 09:07:39;;;;;;;7.22;3.28;;;10.20;99.90;;;;;;4145688;28;20037;-66
2022/03/15 09:09:40;;;;;;;7.65;2.97;;;10.20;99.90;;;;;;4141951;28;20045;-67
2022/03/15 09:11:41;;;;;;;10.35;3.35;;;10.30;99.90;;;;;;4142184;28;20058;-66
2022/03/15 09:13:42;;;;;;;8.13;3.30;;;10.30;99.90;;;;;;4141507;28;20038;-67
2022/03/15 09:15:43;;;;;;;7.13;3.10;;;10.30;99.90;;;;;;4141614;28;20084;-66
2022/03/15 09:17:44;;;;;;;15.05;3.42;;;10.40;99.90;;;;;;4145517;28;20439;-67
2022/03/15 09:19:44;;;;;;;7.93;3.13;;;10.40;99.90;;;;;;4144681;28;20034;-66
2022/03/15 09:21:45;;;;;;;8.18;2.95;;;10.40;99.90;;;;;;4142305;28;20057;-67
2022/03/15 09:23:46;;;;;;;5.53;2.85;;;10.30;99.90;;;;;;4147366;28;20182;-66
2022/03/15 09:25:49;;;;;;;8.68;3.10;;;10.40;99.90;;;;;;4142432;28;20034;-66
2022/03/15 09:27:50;;;;;;;5.80;2.85;;;10.40;99.90;;;;;;4146157;28;20048;-66
2022/03/15 09:29:51;;;;;;;7.45;2.78;;;10.40;99.90;;;;;;4143224;28;21066;-67
2022/03/15 09:31:51;;;;;;;8.57;2.95;;;10.40;99.90;;;;;;4140128;28;20346;-67
2022/03/15 09:33:52;;;;;;;7.70;3.03;;;10.40;99.90;;;;;;4142105;28;20128;-66
2022/03/15 09:35:53;;;;;;;7.38;3.17;;;10.40;99.90;;;;;;4143472;28;20081;-67
2022/03/15 09:37:54;;;;;;;5.72;2.75;;;10.30;99.90;;;;;;4146202;28;20042;-66
2022/03/15 09:39:57;;;;;;;5.80;2.70;;;10.40;99.90;;;;;;4143591;28;20030;-66
2022/03/15 09:41:59;;;;;;;6.97;2.75;;;10.40;99.90;;;;;;4143004;28;20037;-67
2022/03/15 09:44:01;;;;;;;6.97;3.35;;;10.50;99.90;;;;;;4142096;28;20053;-66
2022/03/15 09:46:03;;;;;;;7.38;3.20;;;10.50;99.90;;;;;;4146351;28;20117;-66
2022/03/15 09:48:11;;;;;;;5.43;2.40;;;10.40;99.90;;;;;;4145831;28;20493;-66
2022/03/15 09:50:13;;;;;;;7.65;2.92;;;10.50;99.90;;;;;;4125960;28;20041;-68
2022/03/15 09:52:14;;;;;;;8.03;3.03;;;10.50;99.90;;;;;;4145055;28;20045;-66
2022/03/15 09:54:17;;;;;;;10.00;3.20;;;10.50;99.90;;;;;;4144241;28;20065;-66
2022/03/15 09:56:18;;;;;;;;;;;10.50;99.90;;;;;;4144030;28;20045;-67
2022/03/15 09:58:21;;;;;;;6.22;2.72;;;10.50;99.90;;;;;;4146183;28;22463;-67
2022/03/15 10:00:21;;;;;;;8.40;3.03;;;10.50;99.90;;;;;;4141354;28;20047;-67
2022/03/15 10:02:22;;;;;;;11.57;3.47;;;10.60;99.90;;;;;;4145676;28;20504;-66
2022/03/15 10:04:23;;;;;;;9.38;3.50;;;10.50;99.90;;;;;;4143618;28;20049;-66
2022/03/15 10:06:24;;;;;;;9.10;3.25;;;10.60;99.90;;;;;;4140963;28;20077;-66
2022/03/15 10:08:25;;;;;;;8.38;3.10;;;10.50;99.90;;;;;;4143442;28;20046;-66
2022/03/15 10:10:26;;;;;;;12.75;3.00;;;10.60;99.90;;;;;;4140800;28;20493;-67
2022/03/15 10:12:26;;;;;;;6.90;3.10;;;10.60;99.90;;;;;;4144263;28;20068;-66
2022/03/15 10:14:27;;;;;;;7.50;3.25;;;10.50;99.90;;;;;;4142653;28;20038;-67
2022/03/15 10:16:33;;;;;;;7.80;3.00;;;10.60;99.90;;;;;;4142094;28;20047;-66
2022/03/15 10:18:34;;;;;;;5.72;3.05;;;10.70;99.90;;;;;;4142234;28;20093;-66
2022/03/15 10:20:42;;;;;;;6.53;3.15;;;10.70;99.90;;;;;;4125200;28;20501;-67
2022/03/15 10:22:58;;;;;;;9.18;3.97;;;10.70;99.90;;;;;;4143778;28;20624;-66
2022/03/15 10:25:00;;;;;;;8.75;3.05;;;10.60;99.90;;;;;;4140429;28;20042;-66
2022/03/15 10:27:01;;;;;;;7.43;3.10;;;10.70;99.90;;;;;;4142978;28;20042;-67
2022/03/15 10:29:02;;;;;;;10.82;3.83;;;10.70;99.90;;;;;;4146079;28;20454;-67
2022/03/15 10:31:05;;;;;;;8.43;3.03;;;10.70;99.90;;;;;;4145757;28;20048;-67
2022/03/15 10:33:08;;;;;;;;;;;10.70;99.90;;;;;;4144478;28;20493;-66
2022/03/15 10:35:09;;;;;;;8.30;3.42;;;10.60;99.90;;;;;;4144618;28;20272;-67